Time;durP1;ratioP1;P1;durP2;ratioP2;P2;SDS_P1;SDS_P2;PMS_P1;PMS_P2;Temp;Humidity;BMP_temperature;BMP_pressure;BME280_temperature;BME280_humidity;BME280_pressure;Samples;Min_cycle;Max_cycle;Signal;HPM_P1;HPM_P2
2022/01/14 00:01:36;;;;;;;;;;;;;;;-1.36;54.06;101128.16;5018160;28;19987;-82
2022/01/14 00:04:01;;;;;;;;;;;;;;;-1.41;54.39;101116.69;5026226;28;19924;-82
2022/01/14 00:06:27;;;;;;;;;;;;;;;-1.56;54.88;101109.84;5023887;28;19913;-82
2022/01/14 00:08:59;;;;;;;;;;;;;;;-1.55;55.65;101101.25;5006868;28;19909;-82
2022/01/14 00:11:25;;;;;;;;;;;;;;;-1.73;56.32;101107.97;5006951;28;19913;-82
2022/01/14 00:14:07;;;;;;;;;;;;;;;-1.54;55.53;101113.41;5012739;28;20386;-82
2022/01/14 00:16:32;;;;;;;;;;;;;;;-1.66;56.56;101113.59;5025586;28;19909;-81
2022/01/14 00:18:58;;;;;;;;;;;;;;;-1.60;56.17;101122.53;5006812;28;19972;-82
2022/01/14 00:21:24;;;;;;;;;;;;;;;-1.50;55.82;101117.97;5018831;28;19983;-82
2022/01/14 00:23:52;;;;;;;;;;;;;;;-1.41;54.97;101112.38;5018567;28;19920;-83
2022/01/14 00:31:57;;;;;;;;;;;;;;;-1.48;55.44;101125.81;5006501;28;19921;-83
2022/01/14 00:34:22;;;;;;;;;;;;;;;-1.57;55.20;101128.75;5006392;28;19924;-84
2022/01/14 00:36:48;;;;;;;;;;;;;;;-1.72;55.98;101118.41;5009316;28;19913;-83
2022/01/14 00:39:13;;;;;;;;;;;;;;;-1.84;55.50;101112.53;5023276;28;20383;-83
2022/01/14 00:41:39;;;;;;;;;;;;;;;-1.95;55.91;101108.44;5041568;28;20364;-83
2022/01/14 00:44:10;;;;;;;;;;;;;;;-1.93;56.97;101099.06;5019072;28;19912;-84
2022/01/14 00:46:35;;;;;;;;;;;;;;;-1.93;56.67;101101.66;5029632;28;19913;-83
2022/01/14 00:49:01;;;;;;;;;;;;;;;-2.01;56.18;101104.72;5008880;28;19914;-83
2022/01/14 00:51:26;;;;;;;;;;;;;;;-1.83;56.48;101104.84;5010845;28;19922;-83
2022/01/14 00:53:52;;;;;;;;;;;;;;;-1.96;56.14;101109.22;5010082;28;20350;-83
2022/01/14 00:56:32;;;;;;;;;;;;;;;-1.81;56.43;101111.03;5010350;28;19913;-83
2022/01/14 00:59:16;;;;;;;;;;;;;;;-1.50;56.36;101101.50;5028835;28;19917;-83
2022/01/14 01:01:42;;;;;;;;;;;;;;;-1.46;55.52;101106.06;5016599;28;20695;-83
2022/01/14 01:04:08;;;;;;;;;;;;;;;-1.43;56.01;101119.19;5010042;28;20016;-83
2022/01/14 01:06:33;;;;;;;;;;;;;;;-1.22;55.55;101121.16;5008749;28;20484;-83
2022/01/14 01:08:59;;;;;;;;;;;;;;;-1.16;55.53;101121.50;5025867;28;19916;-83
2022/01/14 01:11:29;;;;;;;;;;;;;;;-1.21;55.23;101110.03;5008485;28;19968;-83
2022/01/14 01:14:04;;;;;;;;;;;;;;;-1.09;55.49;101103.81;5010380;28;19924;-83
2022/01/14 01:16:29;;;;;;;;;;;;;;;-1.13;55.50;101095.78;5009740;28;19909;-83
2022/01/14 01:18:55;;;;;;;;;;;;;;;-1.30;56.24;101093.19;5027829;28;20718;-82
2022/01/14 01:21:20;;;;;;;;;;;;;;;-1.25;54.95;101085.66;5019569;28;20443;-83
2022/01/14 01:23:45;;;;;;;;;;;;;;;-1.50;55.64;101078.22;5009894;28;19987;-82
2022/01/14 01:26:20;;;;;;;;;;;;;;;-1.56;55.87;101076.19;5008453;28;19914;-83
2022/01/14 01:31:39;;;;;;;;;;;;;;;-1.66;55.52;101061.84;5008365;28;19944;-83
2022/01/14 01:34:10;;;;;;;;;;;;;;;-1.74;55.49;101060.53;5017685;28;19917;-83
2022/01/14 01:36:36;;;;;;;;;;;;;;;-1.82;56.27;101048.84;5029106;28;19986;-83
2022/01/14 01:39:04;;;;;;;;;;;;;;;-1.91;56.89;101035.41;5009633;28;19913;-83
2022/01/14 01:41:29;;;;;;;;;;;;;;;-1.95;57.21;101042.06;5008693;28;20429;-82
2022/01/14 01:43:55;;;;;;;;;;;;;;;-1.98;55.95;101042.81;5022243;28;19912;-83
2022/01/14 01:46:21;;;;;;;;;;;;;;;-1.86;55.78;101044.31;5026877;28;19909;-83
2022/01/14 01:48:51;;;;;;;;;;;;;;;-1.83;56.03;101047.06;5020251;28;19928;-82
2022/01/14 01:51:16;;;;;;;;;;;;;;;-1.67;56.01;101047.13;5018181;28;19914;-83
2022/01/14 01:53:41;;;;;;;;;;;;;;;-1.75;55.98;101045.78;5007108;28;19913;-83
2022/01/14 01:56:07;;;;;;;;;;;;;;;-1.72;55.83;101037.31;5007426;28;19945;-83
2022/01/14 01:58:32;;;;;;;;;;;;;;;-1.70;56.29;101034.03;5007288;28;20004;-83
2022/01/14 02:00:57;;;;;;;;;;;;;;;-1.64;55.75;101028.28;5010122;28;19919;-83
2022/01/14 02:03:23;;;;;;;;;;;;;;;-1.72;55.73;101014.91;5026448;28;19995;-83
2022/01/14 02:05:49;;;;;;;;;;;;;;;-1.55;55.49;101015.84;5027597;28;20011;-83
2022/01/14 02:08:14;;;;;;;;;;;;;;;-1.59;56.14;101008.75;5016834;28;19963;-83
2022/01/14 02:10:39;;;;;;;;;;;;;;;-1.56;55.90;101008.00;5007821;28;19941;-83
2022/01/14 02:13:06;;;;;;;;;;;;;;;-1.80;55.87;101004.13;5007851;28;19955;-83
2022/01/14 02:15:49;;;;;;;;;;;;;;;-1.77;55.71;100990.50;5008023;28;19920;-82
2022/01/14 02:23:39;;;;;;;;;;;;;;;-1.87;56.55;100988.19;5023864;28;20371;-83
2022/01/14 02:26:04;;;;;;;;;;;;;;;-1.87;56.27;100985.59;5026324;28;19913;-84
2022/01/14 02:28:30;;;;;;;;;;;;;;;-1.77;56.27;100976.69;5027457;28;19966;-84
2022/01/14 02:30:56;;;;;;;;;;;;;;;-1.81;56.93;100971.34;5025489;28;19925;-84
2022/01/14 02:33:21;;;;;;;;;;;;;;;-1.72;56.69;100977.81;5017256;28;19924;-84
2022/01/14 02:35:47;;;;;;;;;;;;;;;-1.58;56.20;100963.91;5007588;28;19916;-83
2022/01/14 02:38:14;;;;;;;;;;;;;;;-1.53;56.40;100977.09;5016502;28;19940;-83
2022/01/14 02:40:40;;;;;;;;;;;;;;;-1.56;55.70;100979.53;4979684;28;1348967;-83
2022/01/14 02:43:11;;;;;;;;;;;;;;;-1.35;55.27;100975.50;5019753;28;19925;-84
2022/01/14 02:45:37;;;;;;;;;;;;;;;-1.49;54.75;100964.41;5012689;28;20406;-83
2022/01/14 02:48:03;;;;;;;;;;;;;;;-1.52;54.58;100961.66;5018787;28;19917;-84
2022/01/14 02:50:37;;;;;;;;;;;;;;;-1.45;55.87;100957.72;5023237;28;19963;-83
2022/01/14 02:53:12;;;;;;;;;;;;;;;-1.51;55.05;100947.91;5020373;28;20336;-83
2022/01/14 02:55:43;;;;;;;;;;;;;;;-1.55;54.74;100945.09;5022193;28;20035;-82
2022/01/14 02:58:09;;;;;;;;;;;;;;;-1.40;55.70;100937.25;5006307;28;19913;-83
2022/01/14 03:00:34;;;;;;;;;;;;;;;-1.49;54.62;100937.66;5006202;28;19924;-83
2022/01/14 03:03:00;;;;;;;;;;;;;;;-1.43;55.02;100935.41;5008565;28;20346;-82
2022/01/14 03:05:26;;;;;;;;;;;;;;;-1.44;55.55;100931.00;5007371;28;19921;-83
2022/01/14 03:07:52;;;;;;;;;;;;;;;-1.37;55.46;100921.91;5012752;28;19991;-83
2022/01/14 03:10:17;;;;;;;;;;;;;;;-1.48;55.84;100910.97;5011158;28;19924;-83
2022/01/14 03:12:43;;;;;;;;;;;;;;;-1.35;55.76;100909.91;5007681;28;19919;-83
2022/01/14 03:15:09;;;;;;;;;;;;;;;-1.17;55.09;100908.28;5007490;28;19917;-82
2022/01/14 03:17:35;;;;;;;;;;;;;;;-1.13;55.08;100909.31;5027559;28;20018;-84
2022/01/14 03:20:02;;;;;;;;;;;;;;;-1.04;54.92;100908.91;5026756;28;19956;-83
2022/01/14 03:22:32;;;;;;;;;;;;;;;-1.19;55.32;100898.63;5007956;28;19917;-83
2022/01/14 03:27:42;;;;;;;;;;;;;;;-1.18;55.28;100895.25;5007461;28;19940;-82
2022/01/14 03:30:08;;;;;;;;;;;;;;;-0.98;54.71;100884.19;5016944;28;20375;-82
2022/01/14 03:32:33;;;;;;;;;;;;;;;-1.03;55.01;100872.72;5025822;28;19913;-82
2022/01/14 03:34:58;;;;;;;;;;;;;;;-1.26;55.87;100871.56;5026271;28;19920;-82
2022/01/14 03:37:24;;;;;;;;;;;;;;;-1.57;55.95;100838.91;5026327;28;19919;-81
2022/01/14 03:39:49;;;;;;;;;;;;;;;-1.36;55.95;100862.44;5012518;28;19920;-82
2022/01/14 03:42:15;;;;;;;;;;;;;;;-1.45;56.65;100852.47;5025175;28;19913;-81
2022/01/14 03:44:40;;;;;;;;;;;;;;;-1.39;56.00;100853.59;5012825;28;19921;-82
2022/01/14 03:47:05;;;;;;;;;;;;;;;-1.27;56.14;100854.22;5006935;28;20009;-83
2022/01/14 03:49:31;;;;;;;;;;;;;;;-1.35;56.06;100846.06;5007213;28;19971;-81
2022/01/14 03:51:56;;;;;;;;;;;;;;;-1.42;55.80;100831.06;5007203;28;20379;-82
2022/01/14 03:54:22;;;;;;;;;;;;;;;-1.24;55.23;100832.78;5017033;28;19948;-81
2022/01/14 03:56:47;;;;;;;;;;;;;;;-1.29;55.98;100836.03;5026441;28;19955;-81
2022/01/14 03:59:13;;;;;;;;;;;;;;;-1.29;55.75;100846.38;5025561;28;19940;-83
2022/01/14 04:01:38;;;;;;;;;;;;;;;-1.28;55.16;100837.81;5025315;28;19962;-82
2022/01/14 04:04:03;;;;;;;;;;;;;;;-1.37;55.61;100832.16;5026426;28;19960;-81
2022/01/14 04:06:30;;;;;;;;;;;;;;;-1.45;55.82;100836.06;5026326;28;19913;-81
2022/01/14 04:08:56;;;;;;;;;;;;;;;-1.45;54.60;100842.13;5014278;28;19917;-82
2022/01/14 04:11:22;;;;;;;;;;;;;;;-1.40;55.07;100841.50;5020081;28;19964;-82
2022/01/14 04:13:51;;;;;;;;;;;;;;;-1.21;53.90;100838.13;5013176;28;19939;-80
2022/01/14 04:16:18;;;;;;;;;;;;;;;-1.14;54.22;100840.22;5025975;28;19909;-81
2022/01/14 04:18:43;;;;;;;;;;;;;;;-0.99;52.82;100837.50;5027000;28;19920;-84
2022/01/14 04:21:09;;;;;;;;;;;;;;;-0.96;53.36;100838.56;5023627;28;19917;-82
2022/01/14 04:23:34;;;;;;;;;;;;;;;-0.91;53.69;100837.06;5014879;28;19975;-82
2022/01/14 04:25:59;;;;;;;;;;;;;;;-0.79;53.54;100846.25;5026217;28;20000;-82
2022/01/14 04:28:26;;;;;;;;;;;;;;;-0.93;54.32;100836.13;5025498;28;19917;-82
2022/01/14 04:30:56;;;;;;;;;;;;;;;-0.91;53.92;100839.66;5012718;28;19939;-85
2022/01/14 04:33:22;;;;;;;;;;;;;;;-0.87;53.72;100832.91;5005790;28;19913;-84
2022/01/14 04:35:48;;;;;;;;;;;;;;;-1.00;54.10;100820.19;5006989;28;19909;-85
2022/01/14 04:38:13;;;;;;;;;;;;;;;-1.04;54.14;100824.31;5010888;28;20334;-85
2022/01/14 04:40:39;;;;;;;;;;;;;;;-1.08;53.81;100814.63;5015096;28;19918;-83
2022/01/14 04:43:06;;;;;;;;;;;;;;;-1.08;54.07;100804.28;5023736;28;19917;-84
2022/01/14 04:48:03;;;;;;;;;;;;;;;-1.03;54.50;100801.91;5025590;28;19936;-85
2022/01/14 04:50:29;;;;;;;;;;;;;;;-1.05;54.13;100796.66;5022462;28;19996;-83
2022/01/14 04:52:54;;;;;;;;;;;;;;;-0.96;54.79;100798.78;5011908;28;20349;-81
2022/01/14 04:55:23;;;;;;;;;;;;;;;-1.08;54.35;100799.97;5024932;28;19971;-84
2022/01/14 04:57:50;;;;;;;;;;;;;;;-1.21;55.06;100800.16;5026274;28;19957;-83
2022/01/14 05:00:16;;;;;;;;;;;;;;;-1.33;54.39;100797.88;5024469;28;19924;-82
2022/01/14 05:02:42;;;;;;;;;;;;;;;-1.19;55.02;100797.66;5012704;28;19940;-83
2022/01/14 05:05:08;;;;;;;;;;;;;;;-1.10;54.83;100803.28;5006342;28;20364;-83
2022/01/14 05:07:34;;;;;;;;;;;;;;;-1.00;54.59;100802.06;5040548;28;20482;-83
2022/01/14 05:12:28;;;;;;;;;;;;;;;-0.71;54.07;100803.47;5005519;28;19921;-83
2022/01/14 05:14:53;;;;;;;;;;;;;;;-0.88;54.47;100809.53;5006300;28;19914;-83
2022/01/14 05:17:19;;;;;;;;;;;;;;;-0.97;54.50;100818.63;5014022;28;20335;-82
2022/01/14 05:19:44;;;;;;;;;;;;;;;-1.14;54.06;100820.38;5023608;28;19909;-82
2022/01/14 05:22:10;;;;;;;;;;;;;;;-1.06;55.04;100818.19;5008366;28;20544;-83
2022/01/14 05:24:35;;;;;;;;;;;;;;;-1.16;55.10;100811.66;5009970;28;19993;-83
2022/01/14 05:27:00;;;;;;;;;;;;;;;-0.93;55.18;100818.00;5017383;28;19912;-82
2022/01/14 05:29:26;;;;;;;;;;;;;;;-0.92;55.35;100804.19;5029259;28;19909;-82
2022/01/14 05:31:52;;;;;;;;;;;;;;;-0.93;55.14;100797.25;5013328;28;19917;-82
2022/01/14 05:34:18;;;;;;;;;;;;;;;-0.95;55.10;100795.41;5009703;28;19980;-82
2022/01/14 05:36:43;;;;;;;;;;;;;;;-0.87;55.04;100783.69;5009606;28;20394;-82
2022/01/14 05:39:09;;;;;;;;;;;;;;;-0.96;54.95;100783.25;5010713;28;19913;-85
2022/01/14 05:41:35;;;;;;;;;;;;;;;-0.98;55.41;100782.28;5015913;28;20029;-83
2022/01/14 05:44:01;;;;;;;;;;;;;;;-0.95;55.59;100772.09;5027045;28;20720;-82
2022/01/14 05:46:27;;;;;;;;;;;;;;;-0.88;54.52;100773.25;5024778;28;19921;-82
2022/01/14 05:48:53;;;;;;;;;;;;;;;-0.97;54.62;100756.47;5029303;28;19908;-83
2022/01/14 05:51:18;;;;;;;;;;;;;;;-0.81;54.19;100762.38;5015863;28;20322;-83
2022/01/14 05:53:43;;;;;;;;;;;;;;;-0.87;53.97;100750.00;5043689;28;19952;-83
2022/01/14 05:56:09;;;;;;;;;;;;;;;-1.00;55.21;100755.44;5021770;28;19921;-83
2022/01/14 05:58:34;;;;;;;;;;;;;;;-0.78;53.90;100745.28;5041134;28;19920;-83
2022/01/14 06:01:00;;;;;;;;;;;;;;;-0.53;54.26;100737.78;5008423;28;19917;-83
2022/01/14 06:03:25;;;;;;;;;;;;;;;-0.57;53.81;100732.44;5009639;28;19917;-82
2022/01/14 06:05:50;;;;;;;;;;;;;;;-0.47;53.40;100725.97;5011928;28;19924;-83
2022/01/14 06:08:16;;;;;;;;;;;;;;;-0.34;53.14;100729.13;5016013;28;19963;-83
2022/01/14 06:10:41;;;;;;;;;;;;;;;-0.22;52.42;100735.78;5011188;28;19935;-83
2022/01/14 06:13:06;;;;;;;;;;;;;;;-0.05;51.62;100749.50;5025974;28;19971;-83
2022/01/14 06:15:32;;;;;;;;;;;;;;;0.04;51.86;100740.34;5027527;28;19917;-83
2022/01/14 06:17:57;;;;;;;;;;;;;;;0.20;51.25;100737.56;5028524;28;19979;-83
2022/01/14 06:20:23;;;;;;;;;;;;;;;0.26;51.48;100734.38;5025021;28;19979;-83
2022/01/14 06:22:49;;;;;;;;;;;;;;;0.27;51.89;100734.44;5007821;28;20335;-83
2022/01/14 06:25:14;;;;;;;;;;;;;;;0.18;52.00;100724.53;5008447;28;20348;-83
2022/01/14 06:27:39;;;;;;;;;;;;;;;0.31;51.75;100719.88;5007154;28;19917;-83
2022/01/14 06:30:05;;;;;;;;;;;;;;;0.24;51.24;100720.47;5008171;28;19921;-84
2022/01/14 06:32:31;;;;;;;;;;;;;;;0.43;51.24;100716.94;5008143;28;19913;-84
2022/01/14 06:34:56;;;;;;;;;;;;;;;0.49;50.99;100710.28;5007118;28;19980;-82
2022/01/14 06:37:22;;;;;;;;;;;;;;;0.73;50.31;100701.75;5008063;28;19957;-83
2022/01/14 06:39:47;;;;;;;;;;;;;;;0.74;50.63;100685.31;5008114;28;20437;-83
2022/01/14 06:42:12;;;;;;;;;;;;;;;0.87;50.16;100685.00;5007360;28;19921;-82
2022/01/14 06:44:38;;;;;;;;;;;;;;;0.92;50.27;100692.09;5008338;28;19913;-82
2022/01/14 06:47:04;;;;;;;;;;;;;;;1.01;49.24;100680.34;5021985;28;19917;-83
2022/01/14 06:49:29;;;;;;;;;;;;;;;0.87;48.68;100678.91;5027743;28;19909;-84
2022/01/14 06:51:54;;;;;;;;;;;;;;;0.97;49.09;100686.22;5020815;28;19920;-83
2022/01/14 06:54:20;;;;;;;;;;;;;;;0.95;48.55;100682.69;5015075;28;19963;-83
2022/01/14 06:56:45;;;;;;;;;;;;;;;1.08;49.09;100681.47;5025996;28;20492;-82
2022/01/14 06:59:10;;;;;;;;;;;;;;;1.18;48.78;100687.94;5027737;28;19913;-82
2022/01/14 07:01:36;;;;;;;;;;;;;;;1.27;47.85;100679.56;5026851;28;20383;-83
2022/01/14 07:04:01;;;;;;;;;;;;;;;1.30;48.69;100692.69;5027285;28;20402;-83
2022/01/14 07:06:26;;;;;;;;;;;;;;;1.66;47.82;100697.53;5026042;28;20361;-82
2022/01/14 07:08:52;;;;;;;;;;;;;;;1.93;47.02;100711.56;5026824;28;20321;-82
2022/01/14 07:11:18;;;;;;;;;;;;;;;2.01;47.18;100705.72;5025210;28;20355;-81
2022/01/14 07:13:43;;;;;;;;;;;;;;;2.19;46.43;100713.31;5020438;28;20016;-81
2022/01/14 07:16:08;;;;;;;;;;;;;;;2.01;46.62;100705.72;5027691;28;20330;-81
2022/01/14 07:18:34;;;;;;;;;;;;;;;1.91;46.94;100710.59;5016766;28;19955;-84
2022/01/14 07:20:59;;;;;;;;;;;;;;;2.01;46.81;100708.31;5006565;28;20007;-83
2022/01/14 07:23:24;;;;;;;;;;;;;;;2.24;46.64;100699.63;5007971;28;20418;-83
2022/01/14 07:25:50;;;;;;;;;;;;;;;2.24;46.45;100688.31;5039479;28;20010;-83
2022/01/14 07:28:15;;;;;;;;;;;;;;;2.22;46.89;100683.03;5007421;28;19972;-83
2022/01/14 07:30:40;;;;;;;;;;;;;;;2.37;47.53;100680.09;5007722;28;19913;-82
2022/01/14 07:33:06;;;;;;;;;;;;;;;2.37;47.11;100668.78;5007633;28;19952;-83
2022/01/14 07:35:31;;;;;;;;;;;;;;;2.67;47.16;100668.91;5007775;28;19914;-83
2022/01/14 07:37:56;;;;;;;;;;;;;;;2.76;47.18;100663.13;5007668;28;19920;-84
2022/01/14 07:40:22;;;;;;;;;;;;;;;2.91;47.33;100655.78;5007711;28;20288;-84
2022/01/14 07:42:47;;;;;;;;;;;;;;;3.04;46.97;100647.53;5007489;28;19944;-83
2022/01/14 07:45:13;;;;;;;;;;;;;;;3.45;46.53;100646.97;5038358;28;19981;-82
2022/01/14 07:47:38;;;;;;;;;;;;;;;3.62;45.68;100647.47;5007236;28;19914;-82
2022/01/14 07:50:04;;;;;;;;;;;;;;;3.40;45.37;100646.84;5007239;28;19913;-84
2022/01/14 07:52:29;;;;;;;;;;;;;;;3.70;46.41;100648.56;5006094;28;20015;-83
2022/01/14 07:54:54;;;;;;;;;;;;;;;3.55;45.77;100637.69;5007207;28;19916;-84
2022/01/14 07:57:20;;;;;;;;;;;;;;;3.80;46.29;100633.16;5039387;28;19953;-85
2022/01/14 07:59:46;;;;;;;;;;;;;;;3.62;45.82;100610.94;5038408;28;19964;-85
2022/01/14 08:02:12;;;;;;;;;;;;;;;3.49;45.20;100621.84;5007283;28;20364;-84
2022/01/14 08:04:38;;;;;;;;;;;;;;;3.53;45.47;100615.91;5038656;28;19914;-84
2022/01/14 08:07:10;;;;;;;;;;;;;;;3.38;46.36;100606.81;5007588;28;19936;-84
2022/01/14 08:09:37;;;;;;;;;;;;;;;3.69;46.30;100598.94;5007087;28;19913;-84
2022/01/14 08:12:03;;;;;;;;;;;;;;;3.76;45.23;100596.53;5005818;28;20320;-85
2022/01/14 08:14:29;;;;;;;;;;;;;;;3.76;45.91;100600.88;5005414;28;20332;-86
2022/01/14 08:16:54;;;;;;;;;;;;;;;3.84;45.19;100585.41;5004611;28;19909;-85
2022/01/14 08:19:19;;;;;;;;;;;;;;;3.59;45.92;100579.53;5007224;28;19972;-85
2022/01/14 08:21:45;;;;;;;;;;;;;;;3.36;45.64;100565.84;5006037;28;19925;-83
2022/01/14 08:24:10;;;;;;;;;;;;;;;3.55;46.15;100578.59;5006499;28;19948;-83
2022/01/14 08:26:35;;;;;;;;;;;;;;;3.72;46.59;100576.44;5006486;28;19917;-82
2022/01/14 08:29:01;;;;;;;;;;;;;;;3.80;45.44;100574.03;5014606;28;19972;-82
2022/01/14 08:31:26;;;;;;;;;;;;;;;3.73;45.99;100567.75;5026267;28;19952;-83
2022/01/14 08:33:51;;;;;;;;;;;;;;;4.09;45.67;100556.50;5024212;28;20015;-83
2022/01/14 08:36:18;;;;;;;;;;;;;;;4.12;46.08;100553.97;5026778;28;19905;-81
2022/01/14 08:38:43;;;;;;;;;;;;;;;4.11;46.31;100561.75;5025377;28;19917;-83
2022/01/14 08:41:08;;;;;;;;;;;;;;;4.09;46.47;100553.91;5026078;28;19913;-82
2022/01/14 08:43:34;;;;;;;;;;;;;;;3.99;46.33;100567.53;5026034;28;19909;-81
2022/01/14 08:46:02;;;;;;;;;;;;;;;4.29;46.42;100562.22;5025506;28;19971;-82
2022/01/14 08:48:28;;;;;;;;;;;;;;;4.29;45.83;100546.53;5026704;28;20363;-81
2022/01/14 08:50:54;;;;;;;;;;;;;;;4.39;45.53;100555.47;5024767;28;19966;-81
2022/01/14 08:53:19;;;;;;;;;;;;;;;4.00;45.99;100544.91;5008067;28;19917;-82
2022/01/14 08:55:44;;;;;;;;;;;;;;;4.38;46.79;100548.47;5006286;28;19920;-82
2022/01/14 08:58:10;;;;;;;;;;;;;;;4.36;46.31;100544.09;5006305;28;19909;-82
2022/01/14 09:00:35;;;;;;;;;;;;;;;4.29;47.09;100536.09;5009648;28;20430;-81
2022/01/14 09:03:01;;;;;;;;;;;;;;;4.58;47.12;100533.25;5010356;28;19920;-82
2022/01/14 09:05:27;;;;;;;;;;;;;;;4.38;46.81;100527.56;5010234;28;19940;-82
2022/01/14 09:07:52;;;;;;;;;;;;;;;4.15;47.13;100520.94;5010186;28;19913;-82
2022/01/14 09:10:18;;;;;;;;;;;;;;;4.33;48.21;100518.75;5010305;28;19967;-82
2022/01/14 09:12:44;;;;;;;;;;;;;;;4.30;48.21;100496.03;5009693;28;19961;-82
2022/01/14 09:15:09;;;;;;;;;;;;;;;4.08;48.08;100494.66;5010104;28;19956;-82
2022/01/14 09:17:35;;;;;;;;;;;;;;;4.18;48.75;100485.31;5009456;28;19914;-82
2022/01/14 09:20:03;;;;;;;;;;;;;;;4.13;49.12;100473.88;5010399;28;19917;-82
2022/01/14 09:22:30;;;;;;;;;;;;;;;4.22;49.12;100471.50;5009378;28;20033;-82
2022/01/14 09:24:57;;;;;;;;;;;;;;;4.32;49.83;100450.81;5009678;28;19917;-82
2022/01/14 09:27:23;;;;;;;;;;;;;;;4.29;49.40;100441.16;5009325;28;19914;-82
2022/01/14 09:29:49;;;;;;;;;;;;;;;4.23;48.58;100454.97;5010016;28;19932;-82
2022/01/14 09:32:14;;;;;;;;;;;;;;;4.30;49.12;100435.97;5009496;28;19913;-82
2022/01/14 09:34:39;;;;;;;;;;;;;;;4.42;49.69;100432.75;5009774;28;19912;-83
2022/01/14 09:37:05;;;;;;;;;;;;;;;4.47;49.49;100425.88;5009888;28;20387;-82
2022/01/14 09:39:32;;;;;;;;;;;;;;;4.58;49.97;100425.25;5009416;28;19986;-84
2022/01/14 09:41:58;;;;;;;;;;;;;;;4.58;49.55;100404.34;5009255;28;19913;-81
2022/01/14 09:44:23;;;;;;;;;;;;;;;4.65;49.02;100396.66;5009048;28;19909;-83
2022/01/14 09:46:49;;;;;;;;;;;;;;;4.71;50.32;100392.41;5009749;28;19909;-82
2022/01/14 09:49:14;;;;;;;;;;;;;;;4.94;50.00;100398.06;5009504;28;19961;-81
2022/01/14 09:51:40;;;;;;;;;;;;;;;4.79;49.45;100401.28;5008928;28;20351;-84
2022/01/14 09:54:06;;;;;;;;;;;;;;;4.80;49.52;100387.34;5009247;28;19964;-83
2022/01/14 09:56:32;;;;;;;;;;;;;;;4.96;49.50;100385.94;5009160;28;19921;-82
2022/01/14 09:58:58;;;;;;;;;;;;;;;4.81;50.03;100381.28;5009204;28;19909;-82
2022/01/14 10:01:23;;;;;;;;;;;;;;;4.95;49.90;100371.94;5007583;28;19913;-82
2022/01/14 10:03:50;;;;;;;;;;;;;;;4.87;49.47;100372.69;5009068;28;19913;-82
2022/01/14 10:06:35;;;;;;;;;;;;;;;4.92;49.92;100363.19;5009066;28;19914;-81
2022/01/14 10:09:04;;;;;;;;;;;;;;;5.01;49.43;100351.16;5008433;28;19913;-81
2022/01/14 10:11:29;;;;;;;;;;;;;;;4.98;49.72;100343.25;5008779;28;19920;-82
2022/01/14 10:14:03;;;;;;;;;;;;;;;5.10;49.28;100337.38;5008702;28;19917;-82
2022/01/14 10:16:28;;;;;;;;;;;;;;;5.02;49.41;100331.13;5009089;28;19939;-82
2022/01/14 10:18:53;;;;;;;;;;;;;;;5.26;50.23;100325.41;5008755;28;20415;-81
2022/01/14 10:21:18;;;;;;;;;;;;;;;5.36;49.97;100332.56;5007656;28;19944;-82
2022/01/14 10:23:48;;;;;;;;;;;;;;;5.44;49.87;100334.41;5008602;28;19913;-81
2022/01/14 10:26:14;;;;;;;;;;;;;;;5.55;50.46;100338.09;5007478;28;20387;-82
2022/01/14 10:28:43;;;;;;;;;;;;;;;5.40;50.58;100312.56;5007221;28;19920;-82
2022/01/14 10:31:09;;;;;;;;;;;;;;;5.43;50.59;100323.06;5007716;28;19967;-81
2022/01/14 10:33:35;;;;;;;;;;;;;;;5.65;51.74;100311.19;5008194;28;19910;-81
2022/01/14 10:36:00;;;;;;;;;;;;;;;5.64;51.12;100300.69;5006389;28;20362;-83
2022/01/14 10:38:26;;;;;;;;;;;;;;;5.71;51.85;100308.66;5008027;28;19924;-81
2022/01/14 10:40:56;;;;;;;;;;;;;;;5.94;52.58;100297.66;5007964;28;19913;-81
2022/01/14 10:43:29;;;;;;;;;;;;;;;6.02;52.09;100285.56;5007138;28;19913;-81
2022/01/14 10:45:55;;;;;;;;;;;;;;;6.22;52.27;100280.56;5008106;28;19920;-80
2022/01/14 10:48:34;;;;;;;;;;;;;;;6.05;52.15;100279.47;5007316;28;20388;-82
2022/01/14 10:50:59;;;;;;;;;;;;;;;6.14;51.92;100263.00;5007441;28;19978;-81
2022/01/14 10:53:26;;;;;;;;;;;;;;;6.09;51.89;100255.97;5007053;28;19914;-81
2022/01/14 10:55:53;;;;;;;;;;;;;;;6.21;51.69;100257.88;5008256;28;19963;-82
2022/01/14 10:58:26;;;;;;;;;;;;;;;6.48;52.20;100252.91;5008156;28;19921;-81
2022/01/14 11:00:55;;;;;;;;;;;;;;;6.59;51.48;100252.13;5007079;28;19991;-82
2022/01/14 11:03:40;;;;;;;;;;;;;;;6.44;52.15;100237.16;5008321;28;19913;-81
2022/01/14 11:06:21;;;;;;;;;;;;;;;6.37;52.85;100230.09;5006994;28;19971;-81
2022/01/14 11:08:47;;;;;;;;;;;;;;;6.62;53.09;100231.19;5007426;28;19927;-82
2022/01/14 11:11:13;;;;;;;;;;;;;;;6.54;52.90;100232.00;5008101;28;20010;-81
2022/01/14 11:13:38;;;;;;;;;;;;;;;6.78;53.16;100219.13;5006746;28;19913;-82
2022/01/14 11:16:04;;;;;;;;;;;;;;;6.92;52.76;100218.34;5007725;28;19905;-81
2022/01/14 11:18:29;;;;;;;;;;;;;;;6.81;52.43;100208.66;5007637;28;20364;-81
2022/01/14 11:23:38;;;;;;;;;;;;;;;6.67;52.58;100204.16;5007514;28;19912;-81
2022/01/14 11:26:06;;;;;;;;;;;;;;;6.76;53.54;100196.38;5011629;28;19921;-82
2022/01/14 11:28:36;;;;;;;;;;;;;;;6.82;53.18;100191.19;5027238;28;19905;-83
2022/01/14 11:31:22;;;;;;;;;;;;;;;6.79;53.39;100188.53;5007120;28;19924;-81
2022/01/14 11:33:47;;;;;;;;;;;;;;;7.12;53.40;100177.44;5005434;28;20584;-81
2022/01/14 11:36:12;;;;;;;;;;;;;;;6.87;53.82;100178.97;5006751;28;19964;-81
2022/01/14 11:38:40;;;;;;;;;;;;;;;6.71;53.64;100162.25;5006978;28;19925;-81
2022/01/14 11:41:06;;;;;;;;;;;;;;;6.78;54.03;100147.44;5007249;28;19928;-82
2022/01/14 11:43:41;;;;;;;;;;;;;;;6.91;54.01;100149.28;5005071;28;19914;-81
2022/01/14 11:46:09;;;;;;;;;;;;;;;7.09;53.83;100152.91;5007076;28;19936;-81
2022/01/14 11:48:39;;;;;;;;;;;;;;;7.09;53.99;100151.16;5007256;28;19917;-81
2022/01/14 11:51:08;;;;;;;;;;;;;;;7.26;53.74;100148.66;5007329;28;19914;-82
2022/01/14 11:53:37;;;;;;;;;;;;;;;7.31;54.22;100144.28;5015404;28;19912;-81
2022/01/14 11:56:03;;;;;;;;;;;;;;;7.25;52.67;100138.16;5026203;28;19971;-82
2022/01/14 11:58:29;;;;;;;;;;;;;;;7.19;53.38;100144.22;5025506;28;19913;-81
2022/01/14 12:00:54;;;;;;;;;;;;;;;7.19;54.13;100138.97;5025406;28;20346;-82
2022/01/14 12:03:25;;;;;;;;;;;;;;;7.29;53.38;100135.53;5026958;28;19913;-81
2022/01/14 12:05:52;;;;;;;;;;;;;;;7.34;54.27;100136.44;5025903;28;20283;-82
2022/01/14 12:08:19;;;;;;;;;;;;;;;7.31;53.63;100119.81;5026084;28;19909;-81
2022/01/14 12:10:44;;;;;;;;;;;;;;;7.34;53.25;100118.06;5015244;28;19983;-81
2022/01/14 12:13:43;;;;;;;;;;;;;;;7.39;53.52;100112.84;5006938;28;19918;-80
2022/01/14 12:18:58;;;;;;;;;;;;;;;7.36;53.25;100110.19;5006539;28;19933;-81
2022/01/14 12:21:42;;;;;;;;;;;;;;;7.33;53.53;100105.81;5006171;28;19940;-80
2022/01/14 12:24:19;;;;;;;;;;;;;;;7.56;54.36;100109.41;5005682;28;19964;-81
2022/01/14 12:26:57;;;;;;;;;;;;;;;7.47;53.23;100095.38;5005435;28;19959;-81
2022/01/14 12:29:36;;;;;;;;;;;;;;;7.42;54.32;100098.84;5006269;28;19924;-80
2022/01/14 12:32:02;;;;;;;;;;;;;;;7.51;53.97;100091.88;5007375;28;19924;-80
2022/01/14 12:34:27;;;;;;;;;;;;;;;7.81;53.94;100089.34;5009210;28;20380;-81
2022/01/14 12:36:53;;;;;;;;;;;;;;;7.83;53.47;100083.25;5010919;28;19971;-81
2022/01/14 12:39:19;;;;;;;;;;;;;;;7.60;53.17;100077.94;5009795;28;19924;-82
2022/01/14 12:41:44;;;;;;;;;;;;;;;7.49;53.77;100071.75;5010186;28;19913;-83
2022/01/14 12:44:10;;;;;;;;;;;;;;;7.56;54.45;100073.53;5009597;28;19912;-81
2022/01/14 12:46:46;;;;;;;;;;;;;;;7.74;53.66;100072.72;5010068;28;19913;-81
2022/01/14 12:49:15;;;;;;;;;;;;;;;7.83;53.18;100079.72;5010464;28;20309;-82
2022/01/14 12:51:41;;;;;;;;;;;;;;;7.64;53.04;100056.03;5010408;28;19920;-81
2022/01/14 12:54:08;;;;;;;;;;;;;;;7.60;54.18;100058.66;5010133;28;19992;-81
2022/01/14 12:56:34;;;;;;;;;;;;;;;7.67;53.96;100055.19;5010495;28;19949;-81
2022/01/14 12:58:59;;;;;;;;;;;;;;;7.61;53.79;100042.91;5010156;28;19909;-81
2022/01/14 13:01:32;;;;;;;;;;;;;;;7.57;53.78;100041.16;5009089;28;19935;-81
2022/01/14 13:04:00;;;;;;;;;;;;;;;7.49;53.65;100028.00;5010162;28;20000;-82
2022/01/14 13:06:26;;;;;;;;;;;;;;;7.50;54.64;100035.00;5009627;28;19971;-81
2022/01/14 13:08:55;;;;;;;;;;;;;;;7.56;53.73;100042.03;5010974;28;19913;-81